sensor_id;sensor_type;location;lat;lon;timestamp;temperature;humidity
7216;DHT22;3649;48.798;9.798;2023-03-29T00:02:03;11.40;97.50
7216;DHT22;3649;48.798;9.798;2023-03-29T00:04:34;11.50;97.80
7216;DHT22;3649;48.798;9.798;2023-03-29T00:07:01;11.20;98.20
7216;DHT22;3649;48.798;9.798;2023-03-29T00:09:31;11.20;98.80
7216;DHT22;3649;48.798;9.798;2023-03-29T00:12:00;11.20;99.70
7216;DHT22;3649;48.798;9.798;2023-03-29T00:14:28;11.20;99.90
7216;DHT22;3649;48.798;9.798;2023-03-29T00:16:57;11.20;99.90
7216;DHT22;3649;48.798;9.798;2023-03-29T00:19:24;11.10;99.90
7216;DHT22;3649;48.798;9.798;2023-03-29T00:21:51;11.00;99.90
7216;DHT22;3649;48.798;9.798;2023-03-29T00:24:18;11.00;99.90
7216;DHT22;3649;48.798;9.798;2023-03-29T00:26:47;10.90;99.90
7216;DHT22;3649;48.798;9.798;2023-03-29T00:29:14;10.90;99.90
7216;DHT22;3649;48.798;9.798;2023-03-29T00:31:41;11.00;99.90
7216;DHT22;3649;48.798;9.798;2023-03-29T00:34:11;11.00;99.90
7216;DHT22;3649;48.798;9.798;2023-03-29T00:36:38;11.00;99.90
7216;DHT22;3649;48.798;9.798;2023-03-29T00:39:05;11.30;99.90
7216;DHT22;3649;48.798;9.798;2023-03-29T00:41:32;11.00;99.90
7216;DHT22;3649;48.798;9.798;2023-03-29T00:44:02;11.10;99.90
7216;DHT22;3649;48.798;9.798;2023-03-29T00:46:30;11.10;99.90
7216;DHT22;3649;48.798;9.798;2023-03-29T00:49:05;11.00;99.90
7216;DHT22;3649;48.798;9.798;2023-03-29T00:51:35;11.10;99.90
7216;DHT22;3649;48.798;9.798;2023-03-29T00:54:04;10.90;99.90
7216;DHT22;3649;48.798;9.798;2023-03-29T00:56:37;10.80;99.90
7216;DHT22;3649;48.798;9.798;2023-03-29T00:59:15;10.80;99.90
7216;DHT22;3649;48.798;9.798;2023-03-29T01:01:52;10.80;99.90
7216;DHT22;3649;48.798;9.798;2023-03-29T01:07:21;11.00;99.90
7216;DHT22;3649;48.798;9.798;2023-03-29T01:09:54;10.90;99.90
7216;DHT22;3649;48.798;9.798;2023-03-29T01:12:28;10.80;99.90
7216;DHT22;3649;48.798;9.798;2023-03-29T01:15:09;10.80;99.90
7216;DHT22;3649;48.798;9.798;2023-03-29T01:17:37;10.90;99.90
7216;DHT22;3649;48.798;9.798;2023-03-29T01:20:12;10.80;99.90
7216;DHT22;3649;48.798;9.798;2023-03-29T01:28:35;10.80;99.90
7216;DHT22;3649;48.798;9.798;2023-03-29T01:31:08;10.80;99.90
7216;DHT22;3649;48.798;9.798;2023-03-29T01:33:48;10.80;99.90
7216;DHT22;3649;48.798;9.798;2023-03-29T01:36:26;10.90;99.90
7216;DHT22;3649;48.798;9.798;2023-03-29T01:38:57;11.00;99.90
7216;DHT22;3649;48.798;9.798;2023-03-29T01:44:34;10.90;99.90
7216;DHT22;3649;48.798;9.798;2023-03-29T01:47:22;10.90;99.90
7216;DHT22;3649;48.798;9.798;2023-03-29T01:50:18;10.80;99.90
7216;DHT22;3649;48.798;9.798;2023-03-29T01:52:56;10.80;99.90
7216;DHT22;3649;48.798;9.798;2023-03-29T01:55:56;10.80;99.90
7216;DHT22;3649;48.798;9.798;2023-03-29T01:58:29;10.80;99.90
7216;DHT22;3649;48.798;9.798;2023-03-29T02:01:01;10.80;99.90
7216;DHT22;3649;48.798;9.798;2023-03-29T02:03:33;10.80;99.90
7216;DHT22;3649;48.798;9.798;2023-03-29T02:06:10;10.80;99.90
7216;DHT22;3649;48.798;9.798;2023-03-29T02:08:40;10.90;99.90
7216;DHT22;3649;48.798;9.798;2023-03-29T02:11:08;11.00;99.90
7216;DHT22;3649;48.798;9.798;2023-03-29T02:13:35;10.90;99.90
7216;DHT22;3649;48.798;9.798;2023-03-29T02:16:08;10.90;99.90
7216;DHT22;3649;48.798;9.798;2023-03-29T02:18:43;10.80;99.90
7216;DHT22;3649;48.798;9.798;2023-03-29T02:24:15;10.80;99.90
7216;DHT22;3649;48.798;9.798;2023-03-29T02:26:43;10.70;99.90
7216;DHT22;3649;48.798;9.798;2023-03-29T02:29:11;10.70;99.90
7216;DHT22;3649;48.798;9.798;2023-03-29T02:34:28;10.70;99.90
7216;DHT22;3649;48.798;9.798;2023-03-29T02:37:02;10.70;99.90
7216;DHT22;3649;48.798;9.798;2023-03-29T02:39:33;10.80;99.90
7216;DHT22;3649;48.798;9.798;2023-03-29T02:42:03;10.80;99.90
7216;DHT22;3649;48.798;9.798;2023-03-29T02:44:33;10.90;99.90
7216;DHT22;3649;48.798;9.798;2023-03-29T02:47:06;10.90;99.90
7216;DHT22;3649;48.798;9.798;2023-03-29T02:49:36;11.50;99.90
7216;DHT22;3649;48.798;9.798;2023-03-29T02:52:10;10.80;99.90
7216;DHT22;3649;48.798;9.798;2023-03-29T02:54:44;11.00;99.90
7216;DHT22;3649;48.798;9.798;2023-03-29T02:57:13;10.90;99.90
7216;DHT22;3649;48.798;9.798;2023-03-29T02:59:40;10.90;99.90
7216;DHT22;3649;48.798;9.798;2023-03-29T03:02:10;10.80;99.90
7216;DHT22;3649;48.798;9.798;2023-03-29T03:04:37;10.90;99.90
7216;DHT22;3649;48.798;9.798;2023-03-29T03:07:04;11.00;99.90
7216;DHT22;3649;48.798;9.798;2023-03-29T03:09:35;10.90;99.90
7216;DHT22;3649;48.798;9.798;2023-03-29T03:12:02;11.00;99.90
7216;DHT22;3649;48.798;9.798;2023-03-29T03:14:29;11.10;99.90
7216;DHT22;3649;48.798;9.798;2023-03-29T03:16:56;11.10;99.90
7216;DHT22;3649;48.798;9.798;2023-03-29T03:19:23;11.10;99.90
7216;DHT22;3649;48.798;9.798;2023-03-29T03:21:50;11.10;99.90
7216;DHT22;3649;48.798;9.798;2023-03-29T03:24:17;11.20;99.90
7216;DHT22;3649;48.798;9.798;2023-03-29T03:26:44;11.10;99.90
7216;DHT22;3649;48.798;9.798;2023-03-29T03:29:12;11.10;99.90
7216;DHT22;3649;48.798;9.798;2023-03-29T03:31:39;10.90;99.90
7216;DHT22;3649;48.798;9.798;2023-03-29T03:34:07;10.90;99.90
7216;DHT22;3649;48.798;9.798;2023-03-29T03:36:34;10.80;99.90
7216;DHT22;3649;48.798;9.798;2023-03-29T03:39:02;10.80;99.90
7216;DHT22;3649;48.798;9.798;2023-03-29T03:41:33;10.90;99.90
7216;DHT22;3649;48.798;9.798;2023-03-29T03:44:00;10.80;99.90
7216;DHT22;3649;48.798;9.798;2023-03-29T03:46:27;10.80;99.90
7216;DHT22;3649;48.798;9.798;2023-03-29T03:48:55;10.70;99.90
7216;DHT22;3649;48.798;9.798;2023-03-29T03:51:23;10.50;99.90
7216;DHT22;3649;48.798;9.798;2023-03-29T03:53:51;10.60;99.90
7216;DHT22;3649;48.798;9.798;2023-03-29T03:56:18;10.70;99.90
7216;DHT22;3649;48.798;9.798;2023-03-29T03:58:46;10.60;99.90
7216;DHT22;3649;48.798;9.798;2023-03-29T04:01:13;10.50;99.90
7216;DHT22;3649;48.798;9.798;2023-03-29T04:03:40;10.60;99.90
7216;DHT22;3649;48.798;9.798;2023-03-29T04:06:08;10.70;99.90
7216;DHT22;3649;48.798;9.798;2023-03-29T04:08:35;10.70;99.90
7216;DHT22;3649;48.798;9.798;2023-03-29T04:11:02;10.70;99.90
7216;DHT22;3649;48.798;9.798;2023-03-29T04:13:30;10.70;99.90
7216;DHT22;3649;48.798;9.798;2023-03-29T04:15:57;10.70;99.90
7216;DHT22;3649;48.798;9.798;2023-03-29T04:18:27;10.60;99.90
7216;DHT22;3649;48.798;9.798;2023-03-29T04:20:54;10.60;99.90
7216;DHT22;3649;48.798;9.798;2023-03-29T04:23:21;10.60;99.90
7216;DHT22;3649;48.798;9.798;2023-03-29T04:25:48;10.70;99.90
7216;DHT22;3649;48.798;9.798;2023-03-29T04:28:20;10.80;99.90
7216;DHT22;3649;48.798;9.798;2023-03-29T04:30:48;10.70;99.90
7216;DHT22;3649;48.798;9.798;2023-03-29T04:33:15;10.70;99.90
7216;DHT22;3649;48.798;9.798;2023-03-29T04:35:42;10.60;99.90
7216;DHT22;3649;48.798;9.798;2023-03-29T04:38:09;10.50;99.90
7216;DHT22;3649;48.798;9.798;2023-03-29T04:40:37;10.60;99.90
7216;DHT22;3649;48.798;9.798;2023-03-29T04:43:03;10.70;99.90
7216;DHT22;3649;48.798;9.798;2023-03-29T04:45:30;10.60;99.90
7216;DHT22;3649;48.798;9.798;2023-03-29T04:47:57;10.60;99.90
7216;DHT22;3649;48.798;9.798;2023-03-29T04:50:27;10.70;99.90
7216;DHT22;3649;48.798;9.798;2023-03-29T04:52:54;10.60;99.90
7216;DHT22;3649;48.798;9.798;2023-03-29T04:55:21;10.60;99.90
7216;DHT22;3649;48.798;9.798;2023-03-29T04:57:48;10.70;99.90
7216;DHT22;3649;48.798;9.798;2023-03-29T05:00:15;10.80;99.90
7216;DHT22;3649;48.798;9.798;2023-03-29T05:02:44;10.70;99.90
7216;DHT22;3649;48.798;9.798;2023-03-29T05:05:12;10.70;99.90
7216;DHT22;3649;48.798;9.798;2023-03-29T05:07:40;10.60;99.90
7216;DHT22;3649;48.798;9.798;2023-03-29T05:10:07;10.50;99.90
7216;DHT22;3649;48.798;9.798;2023-03-29T05:12:34;10.60;99.90
7216;DHT22;3649;48.798;9.798;2023-03-29T05:15:03;10.60;99.90
7216;DHT22;3649;48.798;9.798;2023-03-29T05:17:30;10.60;99.90
7216;DHT22;3649;48.798;9.798;2023-03-29T05:19:58;10.60;99.90
7216;DHT22;3649;48.798;9.798;2023-03-29T05:22:25;10.60;99.90
7216;DHT22;3649;48.798;9.798;2023-03-29T05:24:52;10.70;99.90
7216;DHT22;3649;48.798;9.798;2023-03-29T05:27:19;10.60;99.90
7216;DHT22;3649;48.798;9.798;2023-03-29T05:29:48;10.70;99.90
7216;DHT22;3649;48.798;9.798;2023-03-29T05:32:15;10.60;99.90
7216;DHT22;3649;48.798;9.798;2023-03-29T05:34:42;10.60;99.90
7216;DHT22;3649;48.798;9.798;2023-03-29T05:37:09;9.40;99.90
7216;DHT22;3649;48.798;9.798;2023-03-29T05:39:36;10.70;99.90
7216;DHT22;3649;48.798;9.798;2023-03-29T05:42:03;10.80;99.90
7216;DHT22;3649;48.798;9.798;2023-03-29T05:44:30;10.70;99.90
7216;DHT22;3649;48.798;9.798;2023-03-29T05:46:57;10.70;99.90
7216;DHT22;3649;48.798;9.798;2023-03-29T05:49:24;10.70;99.90
7216;DHT22;3649;48.798;9.798;2023-03-29T05:51:51;10.70;99.90
7216;DHT22;3649;48.798;9.798;2023-03-29T05:54:23;10.80;99.90
7216;DHT22;3649;48.798;9.798;2023-03-29T05:56:50;10.70;99.90
7216;DHT22;3649;48.798;9.798;2023-03-29T05:59:17;10.90;99.90
7216;DHT22;3649;48.798;9.798;2023-03-29T06:01:45;10.70;99.90
7216;DHT22;3649;48.798;9.798;2023-03-29T06:04:13;10.80;99.90
7216;DHT22;3649;48.798;9.798;2023-03-29T06:06:41;11.00;99.90
7216;DHT22;3649;48.798;9.798;2023-03-29T06:09:07;11.00;99.90
7216;DHT22;3649;48.798;9.798;2023-03-29T06:11:35;10.90;99.90
7216;DHT22;3649;48.798;9.798;2023-03-29T06:14:02;10.90;99.90
7216;DHT22;3649;48.798;9.798;2023-03-29T06:16:29;10.90;99.90
7216;DHT22;3649;48.798;9.798;2023-03-29T06:18:56;11.00;99.90
7216;DHT22;3649;48.798;9.798;2023-03-29T06:21:23;10.90;99.90
7216;DHT22;3649;48.798;9.798;2023-03-29T06:23:52;11.00;99.90
7216;DHT22;3649;48.798;9.798;2023-03-29T06:26:19;10.90;99.90
7216;DHT22;3649;48.798;9.798;2023-03-29T06:28:46;11.00;99.90
7216;DHT22;3649;48.798;9.798;2023-03-29T06:31:16;11.00;99.90
7216;DHT22;3649;48.798;9.798;2023-03-29T06:33:43;11.00;99.90
7216;DHT22;3649;48.798;9.798;2023-03-29T06:36:10;11.10;99.90
7216;DHT22;3649;48.798;9.798;2023-03-29T06:38:39;11.00;99.90
7216;DHT22;3649;48.798;9.798;2023-03-29T06:41:08;11.10;99.90
7216;DHT22;3649;48.798;9.798;2023-03-29T06:43:38;11.30;99.90
7216;DHT22;3649;48.798;9.798;2023-03-29T06:46:05;11.10;99.90
7216;DHT22;3649;48.798;9.798;2023-03-29T06:48:38;11.00;99.90
7216;DHT22;3649;48.798;9.798;2023-03-29T06:51:06;11.00;99.90
7216;DHT22;3649;48.798;9.798;2023-03-29T06:53:33;11.20;99.90
7216;DHT22;3649;48.798;9.798;2023-03-29T06:56:00;11.20;99.90
7216;DHT22;3649;48.798;9.798;2023-03-29T06:58:30;11.20;99.90
7216;DHT22;3649;48.798;9.798;2023-03-29T07:01:01;11.40;99.90
7216;DHT22;3649;48.798;9.798;2023-03-29T07:03:29;11.50;99.90
7216;DHT22;3649;48.798;9.798;2023-03-29T07:06:01;11.40;99.90
7216;DHT22;3649;48.798;9.798;2023-03-29T07:08:37;11.40;99.90
7216;DHT22;3649;48.798;9.798;2023-03-29T07:11:10;11.40;99.90
7216;DHT22;3649;48.798;9.798;2023-03-29T07:13:39;11.50;99.90
7216;DHT22;3649;48.798;9.798;2023-03-29T07:16:09;11.50;99.90
7216;DHT22;3649;48.798;9.798;2023-03-29T07:18:42;11.60;99.90
7216;DHT22;3649;48.798;9.798;2023-03-29T07:21:11;11.60;99.90
7216;DHT22;3649;48.798;9.798;2023-03-29T07:23:38;11.70;99.90
7216;DHT22;3649;48.798;9.798;2023-03-29T07:26:06;11.60;99.90
7216;DHT22;3649;48.798;9.798;2023-03-29T07:28:34;11.60;99.90
7216;DHT22;3649;48.798;9.798;2023-03-29T07:31:08;11.60;99.90
7216;DHT22;3649;48.798;9.798;2023-03-29T07:33:37;11.60;99.90
7216;DHT22;3649;48.798;9.798;2023-03-29T07:36:05;11.80;99.90
7216;DHT22;3649;48.798;9.798;2023-03-29T07:38:32;11.70;99.90
7216;DHT22;3649;48.798;9.798;2023-03-29T07:41:03;11.80;99.90
7216;DHT22;3649;48.798;9.798;2023-03-29T07:43:30;11.90;99.90
7216;DHT22;3649;48.798;9.798;2023-03-29T07:46:01;11.90;99.90
7216;DHT22;3649;48.798;9.798;2023-03-29T07:48:28;12.00;99.90
7216;DHT22;3649;48.798;9.798;2023-03-29T07:50:56;12.10;99.90
7216;DHT22;3649;48.798;9.798;2023-03-29T07:53:23;12.20;99.90
7216;DHT22;3649;48.798;9.798;2023-03-29T07:55:50;12.10;99.90
7216;DHT22;3649;48.798;9.798;2023-03-29T07:58:18;12.20;99.90
7216;DHT22;3649;48.798;9.798;2023-03-29T08:00:45;12.20;99.90
7216;DHT22;3649;48.798;9.798;2023-03-29T08:03:14;12.30;99.90
7216;DHT22;3649;48.798;9.798;2023-03-29T08:05:42;12.40;99.90
7216;DHT22;3649;48.798;9.798;2023-03-29T08:08:11;12.50;99.90
7216;DHT22;3649;48.798;9.798;2023-03-29T08:10:39;12.60;99.90
7216;DHT22;3649;48.798;9.798;2023-03-29T08:13:09;12.70;99.90
7216;DHT22;3649;48.798;9.798;2023-03-29T08:15:37;12.60;99.90
7216;DHT22;3649;48.798;9.798;2023-03-29T08:18:06;12.70;99.90
7216;DHT22;3649;48.798;9.798;2023-03-29T08:20:33;12.80;99.90
7216;DHT22;3649;48.798;9.798;2023-03-29T08:23:00;12.80;99.90
7216;DHT22;3649;48.798;9.798;2023-03-29T08:25:27;12.80;99.90
7216;DHT22;3649;48.798;9.798;2023-03-29T08:27:53;12.80;99.90
7216;DHT22;3649;48.798;9.798;2023-03-29T08:30:20;12.80;99.90
7216;DHT22;3649;48.798;9.798;2023-03-29T08:32:47;12.90;99.90
7216;DHT22;3649;48.798;9.798;2023-03-29T08:35:19;12.90;99.90
7216;DHT22;3649;48.798;9.798;2023-03-29T08:37:46;13.00;99.90
7216;DHT22;3649;48.798;9.798;2023-03-29T08:40:20;13.00;99.90
7216;DHT22;3649;48.798;9.798;2023-03-29T08:46:19;13.00;99.90
7216;DHT22;3649;48.798;9.798;2023-03-29T08:48:58;12.90;99.90
7216;DHT22;3649;48.798;9.798;2023-03-29T08:51:41;12.90;99.90
7216;DHT22;3649;48.798;9.798;2023-03-29T08:54:35;13.10;99.90
7216;DHT22;3649;48.798;9.798;2023-03-29T08:57:20;13.10;99.90
7216;DHT22;3649;48.798;9.798;2023-03-29T08:59:51;13.20;99.90
7216;DHT22;3649;48.798;9.798;2023-03-29T09:02:23;13.20;99.90
7216;DHT22;3649;48.798;9.798;2023-03-29T09:04:59;13.20;99.90
7216;DHT22;3649;48.798;9.798;2023-03-29T09:07:28;13.20;99.90
7216;DHT22;3649;48.798;9.798;2023-03-29T09:09:55;13.20;99.90
7216;DHT22;3649;48.798;9.798;2023-03-29T09:15:26;13.30;99.90
7216;DHT22;3649;48.798;9.798;2023-03-29T09:18:19;13.40;99.90
7216;DHT22;3649;48.798;9.798;2023-03-29T09:20:59;13.30;99.90
7216;DHT22;3649;48.798;9.798;2023-03-29T09:26:51;13.40;99.90
7216;DHT22;3649;48.798;9.798;2023-03-29T09:32:24;13.30;99.90
7216;DHT22;3649;48.798;9.798;2023-03-29T09:37:36;13.40;99.90
7216;DHT22;3649;48.798;9.798;2023-03-29T09:40:14;13.50;99.90
7216;DHT22;3649;48.798;9.798;2023-03-29T09:42:43;13.50;99.90
7216;DHT22;3649;48.798;9.798;2023-03-29T09:45:11;13.60;99.90
7216;DHT22;3649;48.798;9.798;2023-03-29T09:47:52;13.60;99.90
7216;DHT22;3649;48.798;9.798;2023-03-29T09:50:48;13.70;99.90
7216;DHT22;3649;48.798;9.798;2023-03-29T09:53:18;13.70;99.90
7216;DHT22;3649;48.798;9.798;2023-03-29T09:55:48;13.70;99.90
7216;DHT22;3649;48.798;9.798;2023-03-29T09:58:19;13.80;99.90
7216;DHT22;3649;48.798;9.798;2023-03-29T10:00:48;13.80;99.90
7216;DHT22;3649;48.798;9.798;2023-03-29T10:03:26;13.90;99.90
7216;DHT22;3649;48.798;9.798;2023-03-29T10:05:56;13.90;99.90
7216;DHT22;3649;48.798;9.798;2023-03-29T10:08:29;13.90;99.90
7216;DHT22;3649;48.798;9.798;2023-03-29T10:10:58;14.30;99.90
7216;DHT22;3649;48.798;9.798;2023-03-29T10:13:32;14.10;99.90
7216;DHT22;3649;48.798;9.798;2023-03-29T10:16:05;14.20;99.90
7216;DHT22;3649;48.798;9.798;2023-03-29T10:18:39;14.20;99.90
7216;DHT22;3649;48.798;9.798;2023-03-29T10:21:11;14.30;99.90
7216;DHT22;3649;48.798;9.798;2023-03-29T10:23:40;14.30;99.60
7216;DHT22;3649;48.798;9.798;2023-03-29T10:26:32;14.30;99.60
7216;DHT22;3649;48.798;9.798;2023-03-29T10:29:02;14.40;99.40
7216;DHT22;3649;48.798;9.798;2023-03-29T10:31:30;14.40;99.00
7216;DHT22;3649;48.798;9.798;2023-03-29T10:34:04;14.40;99.20
7216;DHT22;3649;48.798;9.798;2023-03-29T10:36:32;14.50;98.80
7216;DHT22;3649;48.798;9.798;2023-03-29T10:39:01;14.50;98.50
7216;DHT22;3649;48.798;9.798;2023-03-29T10:41:33;14.50;98.90
7216;DHT22;3649;48.798;9.798;2023-03-29T10:44:01;14.60;99.10
7216;DHT22;3649;48.798;9.798;2023-03-29T10:46:31;14.60;99.20
7216;DHT22;3649;48.798;9.798;2023-03-29T10:49:00;14.60;99.10
7216;DHT22;3649;48.798;9.798;2023-03-29T10:51:31;14.70;98.60
7216;DHT22;3649;48.798;9.798;2023-03-29T10:54:01;14.70;98.50
7216;DHT22;3649;48.798;9.798;2023-03-29T10:56:38;14.80;98.30
7216;DHT22;3649;48.798;9.798;2023-03-29T11:10:47;15.00;98.00
7216;DHT22;3649;48.798;9.798;2023-03-29T11:29:39;15.20;98.40
7216;DHT22;3649;48.798;9.798;2023-03-29T11:35:44;15.20;98.30
7216;DHT22;3649;48.798;9.798;2023-03-29T11:41:20;15.20;98.40
7216;DHT22;3649;48.798;9.798;2023-03-29T11:46:53;15.20;98.80
7216;DHT22;3649;48.798;9.798;2023-03-29T11:49:27;15.30;98.80
7216;DHT22;3649;48.798;9.798;2023-03-29T11:52:03;15.30;98.80
7216;DHT22;3649;48.798;9.798;2023-03-29T11:55:11;15.30;99.00
7216;DHT22;3649;48.798;9.798;2023-03-29T11:57:48;15.40;98.80
7216;DHT22;3649;48.798;9.798;2023-03-29T12:10:44;15.50;98.60
7216;DHT22;3649;48.798;9.798;2023-03-29T12:13:18;15.50;98.60
7216;DHT22;3649;48.798;9.798;2023-03-29T12:15:55;15.40;98.90
7216;DHT22;3649;48.798;9.798;2023-03-29T12:18:43;15.50;99.10
7216;DHT22;3649;48.798;9.798;2023-03-29T12:21:14;15.40;98.80
7216;DHT22;3649;48.798;9.798;2023-03-29T12:23:43;15.50;98.80
7216;DHT22;3649;48.798;9.798;2023-03-29T12:29:19;15.60;99.30
7216;DHT22;3649;48.798;9.798;2023-03-29T12:38:12;15.60;99.50
7216;DHT22;3649;48.798;9.798;2023-03-29T12:40:45;15.60;99.10
7216;DHT22;3649;48.798;9.798;2023-03-29T12:43:32;15.80;98.80
7216;DHT22;3649;48.798;9.798;2023-03-29T12:48:36;15.70;99.00
7216;DHT22;3649;48.798;9.798;2023-03-29T12:51:12;15.80;99.20
7216;DHT22;3649;48.798;9.798;2023-03-29T12:53:49;15.80;98.80
7216;DHT22;3649;48.798;9.798;2023-03-29T12:56:22;15.90;98.70
7216;DHT22;3649;48.798;9.798;2023-03-29T13:01:31;15.90;99.30
7216;DHT22;3649;48.798;9.798;2023-03-29T13:09:17;15.90;99.60
7216;DHT22;3649;48.798;9.798;2023-03-29T13:12:10;15.90;99.40
7216;DHT22;3649;48.798;9.798;2023-03-29T13:14:49;15.90;99.20
7216;DHT22;3649;48.798;9.798;2023-03-29T13:17:29;16.00;99.20
7216;DHT22;3649;48.798;9.798;2023-03-29T13:34:04;16.10;98.00
7216;DHT22;3649;48.798;9.798;2023-03-29T13:39:32;16.30;97.70
7216;DHT22;3649;48.798;9.798;2023-03-29T13:47:48;16.40;97.50
7216;DHT22;3649;48.798;9.798;2023-03-29T13:50:54;16.40;97.20
7216;DHT22;3649;48.798;9.798;2023-03-29T13:53:33;16.40;97.70
7216;DHT22;3649;48.798;9.798;2023-03-29T13:56:00;16.40;97.80
7216;DHT22;3649;48.798;9.798;2023-03-29T13:58:42;16.50;98.40
7216;DHT22;3649;48.798;9.798;2023-03-29T14:01:26;16.50;98.80
7216;DHT22;3649;48.798;9.798;2023-03-29T14:03:54;16.00;98.70
7216;DHT22;3649;48.798;9.798;2023-03-29T14:06:28;16.60;99.20
7216;DHT22;3649;48.798;9.798;2023-03-29T14:08:59;16.50;99.40
7216;DHT22;3649;48.798;9.798;2023-03-29T14:11:29;16.50;99.60
7216;DHT22;3649;48.798;9.798;2023-03-29T14:13:59;16.50;99.80
7216;DHT22;3649;48.798;9.798;2023-03-29T14:16:33;16.50;99.90
7216;DHT22;3649;48.798;9.798;2023-03-29T14:19:15;16.50;99.90
7216;DHT22;3649;48.798;9.798;2023-03-29T14:21:43;16.50;99.80
7216;DHT22;3649;48.798;9.798;2023-03-29T14:24:16;16.60;99.80
7216;DHT22;3649;48.798;9.798;2023-03-29T14:26:46;16.60;99.90
7216;DHT22;3649;48.798;9.798;2023-03-29T14:29:13;16.60;99.90
7216;DHT22;3649;48.798;9.798;2023-03-29T14:31:41;16.50;99.90
7216;DHT22;3649;48.798;9.798;2023-03-29T14:34:16;16.60;99.90
7216;DHT22;3649;48.798;9.798;2023-03-29T14:36:46;16.60;99.90
7216;DHT22;3649;48.798;9.798;2023-03-29T14:39:20;16.70;99.90
7216;DHT22;3649;48.798;9.798;2023-03-29T14:41:55;16.60;99.90
7216;DHT22;3649;48.798;9.798;2023-03-29T14:44:32;16.60;99.90
7216;DHT22;3649;48.798;9.798;2023-03-29T14:47:01;16.60;99.90
7216;DHT22;3649;48.798;9.798;2023-03-29T14:49:29;16.50;99.90
7216;DHT22;3649;48.798;9.798;2023-03-29T14:51:57;16.50;99.90
7216;DHT22;3649;48.798;9.798;2023-03-29T14:54:27;16.40;99.90
7216;DHT22;3649;48.798;9.798;2023-03-29T14:56:55;16.50;99.90
7216;DHT22;3649;48.798;9.798;2023-03-29T15:00:12;16.40;99.90
7216;DHT22;3649;48.798;9.798;2023-03-29T15:02:33;16.40;99.90
7216;DHT22;3649;48.798;9.798;2023-03-29T15:05:02;16.40;99.90
7216;DHT22;3649;48.798;9.798;2023-03-29T15:07:32;16.30;99.90
7216;DHT22;3649;48.798;9.798;2023-03-29T15:10:01;16.30;99.90
7216;DHT22;3649;48.798;9.798;2023-03-29T15:12:31;16.30;99.90
7216;DHT22;3649;48.798;9.798;2023-03-29T15:15:00;16.30;99.90
7216;DHT22;3649;48.798;9.798;2023-03-29T15:17:34;16.20;99.90
7216;DHT22;3649;48.798;9.798;2023-03-29T15:20:22;16.30;99.90
7216;DHT22;3649;48.798;9.798;2023-03-29T15:25:56;16.20;99.90
7216;DHT22;3649;48.798;9.798;2023-03-29T15:28:32;16.20;99.90
7216;DHT22;3649;48.798;9.798;2023-03-29T15:31:18;16.20;99.90
7216;DHT22;3649;48.798;9.798;2023-03-29T15:33:46;16.20;99.90
7216;DHT22;3649;48.798;9.798;2023-03-29T15:36:13;16.30;99.90
7216;DHT22;3649;48.798;9.798;2023-03-29T15:38:41;16.20;99.90
7216;DHT22;3649;48.798;9.798;2023-03-29T15:41:12;16.20;99.90
7216;DHT22;3649;48.798;9.798;2023-03-29T15:43:40;16.30;99.90
7216;DHT22;3649;48.798;9.798;2023-03-29T15:46:10;16.30;99.90
7216;DHT22;3649;48.798;9.798;2023-03-29T15:48:37;16.20;99.90
7216;DHT22;3649;48.798;9.798;2023-03-29T15:51:05;16.20;99.90
7216;DHT22;3649;48.798;9.798;2023-03-29T15:53:32;16.20;99.90
7216;DHT22;3649;48.798;9.798;2023-03-29T15:56:01;16.30;99.90
7216;DHT22;3649;48.798;9.798;2023-03-29T15:58:32;16.20;99.90
7216;DHT22;3649;48.798;9.798;2023-03-29T16:01:15;16.10;99.90
7216;DHT22;3649;48.798;9.798;2023-03-29T16:03:44;16.10;99.90
7216;DHT22;3649;48.798;9.798;2023-03-29T16:06:14;16.10;99.90
7216;DHT22;3649;48.798;9.798;2023-03-29T16:08:42;16.10;99.90
7216;DHT22;3649;48.798;9.798;2023-03-29T16:11:09;16.10;99.90
7216;DHT22;3649;48.798;9.798;2023-03-29T16:13:37;16.10;99.90
7216;DHT22;3649;48.798;9.798;2023-03-29T16:16:04;16.10;99.90
7216;DHT22;3649;48.798;9.798;2023-03-29T16:18:31;16.00;99.90
7216;DHT22;3649;48.798;9.798;2023-03-29T16:20:58;16.00;99.90
7216;DHT22;3649;48.798;9.798;2023-03-29T16:23:25;15.90;99.90
7216;DHT22;3649;48.798;9.798;2023-03-29T16:25:52;15.90;99.90
7216;DHT22;3649;48.798;9.798;2023-03-29T16:28:18;15.90;99.90
7216;DHT22;3649;48.798;9.798;2023-03-29T16:30:45;15.80;99.90
7216;DHT22;3649;48.798;9.798;2023-03-29T16:33:12;15.80;99.90
7216;DHT22;3649;48.798;9.798;2023-03-29T16:35:39;15.80;99.90
7216;DHT22;3649;48.798;9.798;2023-03-29T16:38:07;15.90;99.90
7216;DHT22;3649;48.798;9.798;2023-03-29T16:40:38;15.90;99.90
7216;DHT22;3649;48.798;9.798;2023-03-29T16:43:05;15.90;99.90
7216;DHT22;3649;48.798;9.798;2023-03-29T16:45:32;15.90;99.90
7216;DHT22;3649;48.798;9.798;2023-03-29T16:47:58;15.90;99.90
7216;DHT22;3649;48.798;9.798;2023-03-29T16:50:25;15.90;99.90
7216;DHT22;3649;48.798;9.798;2023-03-29T16:52:52;15.80;99.90
7216;DHT22;3649;48.798;9.798;2023-03-29T16:55:19;15.80;99.90
7216;DHT22;3649;48.798;9.798;2023-03-29T16:57:46;15.80;99.90
7216;DHT22;3649;48.798;9.798;2023-03-29T17:00:16;15.80;99.90
7216;DHT22;3649;48.798;9.798;2023-03-29T17:02:45;15.70;99.90
7216;DHT22;3649;48.798;9.798;2023-03-29T17:05:16;15.70;99.90
7216;DHT22;3649;48.798;9.798;2023-03-29T17:07:44;15.70;99.90
7216;DHT22;3649;48.798;9.798;2023-03-29T17:10:12;15.70;99.90
7216;DHT22;3649;48.798;9.798;2023-03-29T17:12:39;15.70;99.90
7216;DHT22;3649;48.798;9.798;2023-03-29T17:15:07;15.70;99.90
7216;DHT22;3649;48.798;9.798;2023-03-29T17:17:35;15.60;99.90
7216;DHT22;3649;48.798;9.798;2023-03-29T17:20:04;15.50;99.90
7216;DHT22;3649;48.798;9.798;2023-03-29T17:22:34;15.60;99.90
7216;DHT22;3649;48.798;9.798;2023-03-29T17:25:01;15.60;99.90
7216;DHT22;3649;48.798;9.798;2023-03-29T17:27:33;15.60;99.90
7216;DHT22;3649;48.798;9.798;2023-03-29T17:30:00;15.50;99.90
7216;DHT22;3649;48.798;9.798;2023-03-29T17:32:27;15.50;99.90
7216;DHT22;3649;48.798;9.798;2023-03-29T17:34:54;15.60;99.90
7216;DHT22;3649;48.798;9.798;2023-03-29T17:37:21;15.50;99.90
7216;DHT22;3649;48.798;9.798;2023-03-29T17:39:48;15.40;99.90
7216;DHT22;3649;48.798;9.798;2023-03-29T17:42:15;15.40;99.90
7216;DHT22;3649;48.798;9.798;2023-03-29T17:44:43;15.40;99.90
7216;DHT22;3649;48.798;9.798;2023-03-29T17:47:10;15.40;99.90
7216;DHT22;3649;48.798;9.798;2023-03-29T17:49:37;15.40;99.90
7216;DHT22;3649;48.798;9.798;2023-03-29T17:52:03;15.30;99.90
7216;DHT22;3649;48.798;9.798;2023-03-29T17:54:30;15.40;99.90
7216;DHT22;3649;48.798;9.798;2023-03-29T17:56:57;15.30;99.90
7216;DHT22;3649;48.798;9.798;2023-03-29T17:59:24;15.40;99.90
7216;DHT22;3649;48.798;9.798;2023-03-29T18:01:51;15.40;99.90
7216;DHT22;3649;48.798;9.798;2023-03-29T18:04:18;15.40;99.90
7216;DHT22;3649;48.798;9.798;2023-03-29T18:06:45;15.40;99.90
7216;DHT22;3649;48.798;9.798;2023-03-29T18:09:12;15.30;99.90
7216;DHT22;3649;48.798;9.798;2023-03-29T18:11:39;15.40;99.90
7216;DHT22;3649;48.798;9.798;2023-03-29T18:14:06;15.40;99.90
7216;DHT22;3649;48.798;9.798;2023-03-29T18:16:33;15.40;99.90
7216;DHT22;3649;48.798;9.798;2023-03-29T18:19:00;15.30;99.90
7216;DHT22;3649;48.798;9.798;2023-03-29T18:21:27;15.30;99.90
7216;DHT22;3649;48.798;9.798;2023-03-29T18:23:54;15.20;99.90
7216;DHT22;3649;48.798;9.798;2023-03-29T18:26:22;15.20;99.90
7216;DHT22;3649;48.798;9.798;2023-03-29T18:28:50;15.20;99.90
7216;DHT22;3649;48.798;9.798;2023-03-29T18:31:18;15.20;99.90